Islip Terrace, New York
Current Conditions -  °F | °C
As of 1:56 PM on Tuesday 27 Jan 2015 (Local Time) from KISP Reporting Station
Overcast Overcast  
Wind Chill:   Ceiling: 9000
Heat Index: 24°   Visibility: 10mi
Dew Point: 14°   Wind: 22mph
Humidity: 65%   Direction: 340°NNW
Pressure: 29.58"   Gusts: 32mph
Location:  40.75°N, 73.19°W
Report Text: KISP 271856Z 34019G28KT 10SM FEW023 SCT033 BKN090 OVC150 M04/M10 A2958 RMK AO2 PK WND 32032/1825 SNE17 SLP018 P0000 T10441100 $
Loading
Personal Weather Stations






























Interactive Weather Map New forecast layout! Learn more

10-Day Weather Forecast

Advertisements
Track Severe Weather on mobile